Time;durP1;ratioP1;P1;durP2;ratioP2;P2;SDS_P1;SDS_P2;PMS_P1;PMS_P2;Temp;Humidity;BMP_temperature;BMP_pressure;BME280_temperature;BME280_humidity;BME280_pressure;Samples;Min_cycle;Max_cycle;Signal;HPM_P1;HPM_P2
2023/03/11 00:01:32;;;;;;;3.60;1.50;;;;;;;;;;4977834;28;20474;-77
2023/03/11 00:03:59;;;;;;;2.90;1.13;;;;;;;;;;4977572;28;20433;-77
2023/03/11 00:06:25;;;;;;;3.58;1.20;;;;;;;;;;4977717;28;20481;-77
2023/03/11 00:08:51;;;;;;;3.08;1.27;;;;;;;;;;4977234;28;20047;-77
2023/03/11 00:11:18;;;;;;;2.45;1.25;;;;;;;;;;4977760;28;20490;-77
2023/03/11 00:13:44;;;;;;;3.33;1.10;;;;;;;;;;4977279;28;20054;-77
2023/03/11 00:16:10;;;;;;;4.85;1.40;;;;;;;;;;4977458;28;20052;-77
2023/03/11 00:18:36;;;;;;;1.83;1.42;;;;;;;;;;4977064;28;20108;-77
2023/03/11 00:21:02;;;;;;;1.75;1.40;;;;;;;;;;4977910;28;20054;-77
2023/03/11 00:23:29;;;;;;;1.90;1.10;;;;;;;;;;4977597;28;20046;-77
2023/03/11 00:25:55;;;;;;;1.50;1.23;;;;;;;;;;4977407;28;20046;-77
2023/03/11 00:28:24;;;;;;;1.98;1.13;;;;;;;;;;4975662;28;20492;-77
2023/03/11 00:30:50;;;;;;;3.10;1.35;;;;;;;;;;4977097;28;20042;-76
2023/03/11 00:33:16;;;;;;;3.03;1.27;;;;;;;;;;4977209;28;20141;-77
2023/03/11 00:35:43;;;;;;;2.55;1.23;;;;;;;;;;4977180;28;20051;-76
2023/03/11 00:38:11;;;;;;;1.35;1.05;;;;;;;;;;4976694;28;20051;-77
2023/03/11 00:40:38;;;;;;;4.18;1.48;;;;;;;;;;4975352;28;20098;-77
2023/03/11 00:43:04;;;;;;;5.05;1.50;;;;;;;;;;4957555;28;20379;-78
2023/03/11 00:45:31;;;;;;;2.72;1.33;;;;;;;;;;4957784;28;20043;-77
2023/03/11 00:47:57;;;;;;;2.65;1.30;;;;;;;;;;4957452;28;20043;-76
2023/03/11 00:50:27;;;;;;;2.75;1.13;;;;;;;;;;4956192;28;20525;-76
2023/03/11 00:52:53;;;;;;;2.65;1.10;;;;;;;;;;4957878;28;20071;-76
2023/03/11 00:55:21;;;;;;;3.00;1.40;;;;;;;;;;4960645;28;20070;-77
2023/03/11 00:57:47;;;;;;;3.15;1.48;;;;;;;;;;4975454;28;20099;-77
2023/03/11 01:00:14;;;;;;;4.20;1.40;;;;;;;;;;4976660;28;20043;-78
2023/03/11 01:02:40;;;;;;;3.45;1.50;;;;;;;;;;4976611;28;20126;-76
2023/03/11 01:05:06;;;;;;;3.08;1.42;;;;;;;;;;4957596;28;20043;-77
2023/03/11 01:07:32;;;;;;;1.90;1.60;;;;;;;;;;4957168;28;20098;-78
2023/03/11 01:09:59;;;;;;;2.65;1.20;;;;;;;;;;4957125;28;20051;-77
2023/03/11 01:12:25;;;;;;;2.15;1.33;;;;;;;;;;4957121;28;20130;-78
2023/03/11 01:14:51;;;;;;;1.77;1.08;;;;;;;;;;4957294;28;20047;-78
2023/03/11 01:17:17;;;;;;;1.75;1.20;;;;;;;;;;4956652;28;20614;-77
2023/03/11 01:19:44;;;;;;;1.20;1.10;;;;;;;;;;4955931;28;20063;-77
2023/03/11 01:22:10;;;;;;;2.05;1.30;;;;;;;;;;4976856;28;20055;-78
2023/03/11 01:24:36;;;;;;;2.33;1.35;;;;;;;;;;4976021;28;20049;-78
2023/03/11 01:27:02;;;;;;;1.42;1.33;;;;;;;;;;4975771;28;20383;-77
2023/03/11 01:29:28;;;;;;;2.80;1.25;;;;;;;;;;4976644;28;20071;-78
2023/03/11 01:31:54;;;;;;;1.60;1.20;;;;;;;;;;4976332;28;20069;-78
2023/03/11 01:34:20;;;;;;;2.17;1.13;;;;;;;;;;4976324;28;20069;-78
2023/03/11 01:36:46;;;;;;;2.13;1.30;;;;;;;;;;4976308;28;20494;-78
2023/03/11 01:39:12;;;;;;;2.42;1.20;;;;;;;;;;4975745;28;20514;-78
2023/03/11 01:41:38;;;;;;;5.32;1.48;;;;;;;;;;4975794;28;20097;-77
2023/03/11 01:44:04;;;;;;;3.95;1.30;;;;;;;;;;4975773;28;20498;-77
2023/03/11 01:47:01;;;;;;;1.63;1.17;;;;;;;;;;4975692;28;20043;-78
2023/03/11 01:49:27;;;;;;;2.80;1.60;;;;;;;;;;4975729;28;20042;-78
2023/03/11 01:51:54;;;;;;;5.20;1.40;;;;;;;;;;4976035;28;20082;-78
2023/03/11 01:54:27;;;;;;;4.65;1.38;;;;;;;;;;4978572;28;20488;-78
2023/03/11 01:56:54;;;;;;;3.15;1.80;;;;;;;;;;4981773;28;20093;-78
2023/03/11 01:59:25;;;;;;;3.03;1.35;;;;;;;;;;4977745;28;20117;-77
2023/03/11 02:01:57;;;;;;;3.97;1.40;;;;;;;;;;4975497;28;20205;-77
2023/03/11 02:04:23;;;;;;;8.80;1.60;;;;;;;;;;4975699;28;20055;-78
2023/03/11 02:06:49;;;;;;;1.65;1.30;;;;;;;;;;4975039;28;20086;-78
2023/03/11 02:09:15;;;;;;;2.10;1.48;;;;;;;;;;4975444;28;20049;-78
2023/03/11 02:11:41;;;;;;;3.67;1.10;;;;;;;;;;4975748;28;20039;-78
2023/03/11 02:14:08;;;;;;;4.05;1.40;;;;;;;;;;4975186;28;20106;-78
2023/03/11 02:16:34;;;;;;;1.83;1.30;;;;;;;;;;4975887;28;20051;-77
2023/03/11 02:19:04;;;;;;;1.90;1.27;;;;;;;;;;4973733;28;20050;-77
2023/03/11 02:21:32;;;;;;;3.45;1.38;;;;;;;;;;4975393;28;20047;-77
2023/03/11 02:24:09;;;;;;;3.33;1.40;;;;;;;;;;4975316;28;20125;-78
2023/03/11 02:26:54;;;;;;;3.13;1.33;;;;;;;;;;4975083;28;20039;-78
2023/03/11 02:29:21;;;;;;;3.13;1.02;;;;;;;;;;4975279;28;20501;-78
2023/03/11 02:31:48;;;;;;;4.28;1.40;;;;;;;;;;4975225;28;20047;-78
2023/03/11 02:34:18;;;;;;;8.90;1.80;;;;;;;;;;4974674;28;20405;-77
2023/03/11 02:36:44;;;;;;;2.83;1.50;;;;;;;;;;4975050;28;20490;-78
2023/03/11 02:39:10;;;;;;;2.38;1.20;;;;;;;;;;4974955;28;20046;-78
2023/03/11 02:41:37;;;;;;;2.67;1.35;;;;;;;;;;4974568;28;20446;-78
2023/03/11 02:44:06;;;;;;;2.20;1.42;;;;;;;;;;4974958;28;20101;-77
2023/03/11 02:46:33;;;;;;;3.00;1.73;;;;;;;;;;4974843;28;20386;-77
2023/03/11 02:48:59;;;;;;;3.58;1.60;;;;;;;;;;4974634;28;20043;-77
2023/03/11 02:51:25;;;;;;;3.80;1.52;;;;;;;;;;4975384;28;20039;-77
2023/03/11 02:53:54;;;;;;;2.33;1.45;;;;;;;;;;4974612;28;20049;-77
2023/03/11 02:56:20;;;;;;;3.13;1.15;;;;;;;;;;4974916;28;20058;-77
2023/03/11 02:58:47;;;;;;;2.38;1.27;;;;;;;;;;4974175;28;20520;-78
2023/03/11 03:01:13;;;;;;;6.75;1.75;;;;;;;;;;4959644;28;20078;-77
2023/03/11 03:03:39;;;;;;;2.20;1.30;;;;;;;;;;4958372;28;20043;-77
2023/03/11 03:06:05;;;;;;;4.32;1.48;;;;;;;;;;4974391;28;20132;-77
2023/03/11 03:08:31;;;;;;;3.10;1.50;;;;;;;;;;4975114;28;20928;-78
2023/03/11 03:10:58;;;;;;;5.72;1.60;;;;;;;;;;4974519;28;20047;-78
2023/03/11 03:13:25;;;;;;;2.03;1.30;;;;;;;;;;4976023;28;20078;-77
2023/03/11 03:15:51;;;;;;;4.40;1.58;;;;;;;;;;4979450;28;20047;-77
2023/03/11 03:18:17;;;;;;;3.25;1.20;;;;;;;;;;4978233;28;20057;-77
2023/03/11 03:20:44;;;;;;;3.10;1.40;;;;;;;;;;4978602;28;20089;-77
2023/03/11 03:23:10;;;;;;;2.45;1.40;;;;;;;;;;4978123;28;20051;-77
2023/03/11 03:25:36;;;;;;;4.75;1.50;;;;;;;;;;4977242;28;20051;-77
2023/03/11 03:28:02;;;;;;;3.05;1.48;;;;;;;;;;4978198;28;20121;-77
2023/03/11 03:30:28;;;;;;;3.35;1.50;;;;;;;;;;4978044;28;20061;-77
2023/03/11 03:32:54;;;;;;;6.10;1.58;;;;;;;;;;4978171;28;20141;-78
2023/03/11 03:35:20;;;;;;;3.88;1.55;;;;;;;;;;4978740;28;20050;-77
2023/03/11 03:37:47;;;;;;;3.50;1.40;;;;;;;;;;4978149;28;20163;-77
2023/03/11 03:40:13;;;;;;;3.17;1.35;;;;;;;;;;4977949;28;20065;-78
2023/03/11 03:42:39;;;;;;;5.88;1.70;;;;;;;;;;4977959;28;20508;-78
2023/03/11 03:45:07;;;;;;;4.88;1.60;;;;;;;;;;4978112;28;20386;-77
2023/03/11 03:47:33;;;;;;;3.30;1.15;;;;;;;;;;4977651;28;20102;-77
2023/03/11 03:49:59;;;;;;;3.30;1.48;;;;;;;;;;4978764;28;20043;-76
2023/03/11 03:52:25;;;;;;;6.60;1.60;;;;;;;;;;4977930;28;20050;-77
2023/03/11 03:54:51;;;;;;;1.52;1.30;;;;;;;;;;4978196;28;20047;-77
2023/03/11 03:57:17;;;;;;;2.60;1.38;;;;;;;;;;4978046;28;20098;-77
2023/03/11 03:59:43;;;;;;;4.97;1.55;;;;;;;;;;4977978;28;20051;-77
2023/03/11 04:02:09;;;;;;;2.40;1.27;;;;;;;;;;4976292;28;20057;-77
2023/03/11 04:04:36;;;;;;;4.75;1.40;;;;;;;;;;4977943;28;20039;-77
2023/03/11 04:07:03;;;;;;;6.55;1.38;;;;;;;;;;4977450;28;20098;-77
2023/03/11 04:09:29;;;;;;;6.57;1.98;;;;;;;;;;4977629;28;20050;-77
2023/03/11 04:11:55;;;;;;;2.55;1.50;;;;;;;;;;4969841;28;20043;-77
2023/03/11 04:14:21;;;;;;;1.60;1.23;;;;;;;;;;4957052;29;20047;-77
2023/03/11 04:16:47;;;;;;;3.47;1.30;;;;;;;;;;4970747;28;20415;-77
2023/03/11 04:19:16;;;;;;;2.17;1.20;;;;;;;;;;4977556;28;20405;-77
2023/03/11 04:21:42;;;;;;;1.83;1.38;;;;;;;;;;4977545;28;20055;-77
2023/03/11 04:24:08;;;;;;;3.30;1.40;;;;;;;;;;4976132;28;20077;-77
2023/03/11 04:26:34;;;;;;;3.10;1.48;;;;;;;;;;4958817;28;20039;-77
2023/03/11 04:29:00;;;;;;;4.00;1.50;;;;;;;;;;4967282;28;20045;-77
2023/03/11 04:31:27;;;;;;;3.67;1.40;;;;;;;;;;4977113;28;20043;-77
2023/03/11 04:33:53;;;;;;;2.33;1.38;;;;;;;;;;4977004;28;20275;-77
2023/03/11 04:36:19;;;;;;;3.33;1.30;;;;;;;;;;4970648;28;20050;-77
2023/03/11 04:38:45;;;;;;;3.13;1.42;;;;;;;;;;4976732;28;20511;-77
2023/03/11 04:41:11;;;;;;;4.38;1.40;;;;;;;;;;4977301;28;20053;-77
2023/03/11 04:43:37;;;;;;;4.50;1.60;;;;;;;;;;4976942;28;20058;-78
2023/03/11 04:46:04;;;;;;;7.63;1.77;;;;;;;;;;4976958;28;20054;-77
2023/03/11 04:48:30;;;;;;;3.22;1.60;;;;;;;;;;4976906;28;20042;-77
2023/03/11 04:50:56;;;;;;;3.38;1.35;;;;;;;;;;4981235;28;20042;-77
2023/03/11 04:53:22;;;;;;;4.93;1.77;;;;;;;;;;4964013;28;20211;-77
2023/03/11 04:55:49;;;;;;;3.95;1.50;;;;;;;;;;4958586;28;20134;-77
2023/03/11 04:58:15;;;;;;;2.70;1.40;;;;;;;;;;4957927;28;20059;-78
2023/03/11 05:00:41;;;;;;;4.30;1.60;;;;;;;;;;4957315;28;20047;-78
2023/03/11 05:03:07;;;;;;;2.63;1.50;;;;;;;;;;4957101;28;20390;-77
2023/03/11 05:05:34;;;;;;;5.05;1.42;;;;;;;;;;4969064;28;20039;-78
2023/03/11 05:08:00;;;;;;;4.05;1.60;;;;;;;;;;4976994;28;20051;-78
2023/03/11 05:10:26;;;;;;;4.88;1.30;;;;;;;;;;4976409;28;20490;-78
2023/03/11 05:12:52;;;;;;;5.10;1.65;;;;;;;;;;4976078;28;20494;-78
2023/03/11 05:15:18;;;;;;;3.20;1.45;;;;;;;;;;4976933;28;20466;-78
2023/03/11 05:17:45;;;;;;;2.97;1.27;;;;;;;;;;4976301;28;20046;-78
2023/03/11 05:20:11;;;;;;;5.70;1.55;;;;;;;;;;4975957;28;20106;-78
2023/03/11 05:22:37;;;;;;;5.05;1.60;;;;;;;;;;4976196;28;20082;-78
2023/03/11 05:25:04;;;;;;;3.08;1.40;;;;;;;;;;4976169;28;20573;-78
2023/03/11 05:27:30;;;;;;;3.42;1.40;;;;;;;;;;5006913;28;20497;-78
2023/03/11 05:29:56;;;;;;;1.67;1.38;;;;;;;;;;4976606;28;20039;-78
2023/03/11 05:32:22;;;;;;;4.13;1.60;;;;;;;;;;4975866;28;20097;-78
2023/03/11 05:34:49;;;;;;;4.25;1.73;;;;;;;;;;4975974;28;20093;-78
2023/03/11 05:37:15;;;;;;;3.42;1.60;;;;;;;;;;4975508;28;20121;-77
2023/03/11 05:39:41;;;;;;;3.90;1.55;;;;;;;;;;4975557;28;20129;-77
2023/03/11 05:42:07;;;;;;;2.10;1.40;;;;;;;;;;4976018;28;20042;-77
2023/03/11 05:44:33;;;;;;;2.15;1.52;;;;;;;;;;4976147;28;20053;-77
2023/03/11 05:47:00;;;;;;;1.85;1.40;;;;;;;;;;4975557;28;20089;-77
2023/03/11 05:49:26;;;;;;;6.10;1.83;;;;;;;;;;4975639;28;20125;-77
2023/03/11 05:51:53;;;;;;;4.15;1.90;;;;;;;;;;4975795;28;20042;-77
2023/03/11 05:54:19;;;;;;;4.93;2.85;;;;;;;;;;4975280;28;20038;-77
2023/03/11 05:56:46;;;;;;;10.00;5.05;;;;;;;;;;4975538;28;20051;-77
2023/03/11 05:59:16;;;;;;;5.43;3.97;;;;;;;;;;4975443;28;20042;-78
2023/03/11 06:01:42;;;;;;;5.05;3.10;;;;;;;;;;4975613;28;20124;-77
2023/03/11 06:04:09;;;;;;;3.45;2.55;;;;;;;;;;4975593;28;20055;-77
2023/03/11 06:06:35;;;;;;;6.55;2.50;;;;;;;;;;4975701;28;20038;-77
2023/03/11 06:09:02;;;;;;;4.45;2.22;;;;;;;;;;4975578;28;20451;-77
2023/03/11 06:11:29;;;;;;;4.15;2.35;;;;;;;;;;4975166;28;20055;-78
2023/03/11 06:13:55;;;;;;;4.40;2.50;;;;;;;;;;4975772;28;20053;-77
2023/03/11 06:16:22;;;;;;;5.15;2.53;;;;;;;;;;4974953;28;20039;-77
2023/03/11 06:18:48;;;;;;;5.55;2.13;;;;;;;;;;4975102;28;20073;-77
2023/03/11 06:21:19;;;;;;;7.95;2.10;;;;;;;;;;4975436;28;20051;-77
2023/03/11 06:23:45;;;;;;;4.25;2.00;;;;;;;;;;4975268;28;20042;-77
2023/03/11 06:26:15;;;;;;;4.47;1.90;;;;;;;;;;4975364;28;20046;-77
2023/03/11 06:28:42;;;;;;;2.55;1.85;;;;;;;;;;4956389;28;20084;-77
2023/03/11 06:31:15;;;;;;;3.70;1.80;;;;;;;;;;4974866;28;20082;-77
2023/03/11 06:33:41;;;;;;;6.07;1.90;;;;;;;;;;4975162;28;20051;-77
2023/03/11 06:36:08;;;;;;;6.13;2.20;;;;;;;;;;4974752;28;20047;-77
2023/03/11 06:38:34;;;;;;;3.47;2.03;;;;;;;;;;4975099;28;20118;-77
2023/03/11 06:41:01;;;;;;;5.65;2.40;;;;;;;;;;4975765;28;20050;-80
2023/03/11 06:43:27;;;;;;;6.60;2.42;;;;;;;;;;4961891;28;20133;-77
2023/03/11 06:45:53;;;;;;;3.72;2.10;;;;;;;;;;4955735;28;20052;-77
2023/03/11 06:48:19;;;;;;;14.73;2.50;;;;;;;;;;4954791;28;20049;-77
2023/03/11 06:50:53;;;;;;;7.50;2.25;;;;;;;;;;4955730;28;20487;-78
2023/03/11 06:53:19;;;;;;;4.22;2.50;;;;;;;;;;4956130;28;20051;-77
2023/03/11 06:55:45;;;;;;;4.22;2.20;;;;;;;;;;4955568;28;20062;-77
2023/03/11 06:58:11;;;;;;;4.50;2.22;;;;;;;;;;4963338;28;20434;-77
2023/03/11 07:00:37;;;;;;;3.85;2.13;;;;;;;;;;4974263;28;20394;-77
2023/03/11 07:03:03;;;;;;;4.50;2.35;;;;;;;;;;4974488;28;20043;-77
2023/03/11 07:05:29;;;;;;;10.70;4.03;;;;;;;;;;4974644;28;20043;-77
2023/03/11 07:07:55;;;;;;;5.43;3.47;;;;;;;;;;4975309;28;20046;-77
2023/03/11 07:10:21;;;;;;;5.82;2.80;;;;;;;;;;4974232;28;20558;-77
2023/03/11 07:12:47;;;;;;;6.30;2.55;;;;;;;;;;4972115;28;20043;-77
2023/03/11 07:15:13;;;;;;;3.15;2.40;;;;;;;;;;4974845;28;20050;-77
2023/03/11 07:17:39;;;;;;;7.93;2.53;;;;;;;;;;4974446;28;20375;-77
2023/03/11 07:20:05;;;;;;;6.22;2.00;;;;;;;;;;4973840;28;20059;-77
2023/03/11 07:22:31;;;;;;;4.00;2.15;;;;;;;;;;4973841;28;20135;-77
2023/03/11 07:24:58;;;;;;;4.07;2.08;;;;;;;;;;4973991;28;20512;-77
2023/03/11 07:27:24;;;;;;;4.32;2.20;;;;;;;;;;4957047;28;20122;-77
2023/03/11 07:29:50;;;;;;;4.57;2.47;;;;;;;;;;4974300;28;20501;-78
2023/03/11 07:32:16;;;;;;;4.95;2.05;;;;;;;;;;4974064;28;20101;-78
2023/03/11 07:34:42;;;;;;;5.45;2.10;;;;;;;;;;4974266;28;20186;-77
2023/03/11 07:37:08;;;;;;;3.58;1.80;;;;;;;;;;4974223;28;20046;-77
2023/03/11 07:39:34;;;;;;;4.03;1.73;;;;;;;;;;4974264;28;20043;-77
2023/03/11 07:42:00;;;;;;;3.33;2.05;;;;;;;;;;4972695;28;20413;-77
2023/03/11 07:44:26;;;;;;;3.40;2.10;;;;;;;;;;4972621;28;20046;-77
2023/03/11 07:46:52;;;;;;;5.55;2.30;;;;;;;;;;4954532;28;20483;-77
2023/03/11 07:49:18;;;;;;;5.45;2.20;;;;;;;;;;4953939;29;20066;-77
2023/03/11 07:51:44;;;;;;;6.40;2.17;;;;;;;;;;4958133;28;20051;-77
2023/03/11 07:54:11;;;;;;;5.43;2.10;;;;;;;;;;4960653;28;20069;-77
2023/03/11 07:56:37;;;;;;;2.97;2.00;;;;;;;;;;4971018;28;20047;-78
2023/03/11 07:59:04;;;;;;;4.88;1.80;;;;;;;;;;4975408;28;20134;-78
2023/03/11 08:01:35;;;;;;;5.28;2.75;;;;;;;;;;4978049;28;20477;-79
2023/03/11 08:04:01;;;;;;;4.72;2.35;;;;;;;;;;4978223;28;20050;-77
2023/03/11 08:06:30;;;;;;;4.20;2.50;;;;;;;;;;4977345;28;20118;-78
2023/03/11 08:08:57;;;;;;;5.50;2.60;;;;;;;;;;4977650;28;20090;-77
2023/03/11 08:11:23;;;;;;;4.05;2.47;;;;;;;;;;4977796;28;20054;-77
2023/03/11 08:13:50;;;;;;;6.43;2.47;;;;;;;;;;4977211;28;20097;-77
2023/03/11 08:16:18;;;;;;;5.32;2.35;;;;;;;;;;4977969;28;20096;-76
2023/03/11 08:18:45;;;;;;;7.68;2.60;;;;;;;;;;4977783;28;20070;-77
2023/03/11 08:21:12;;;;;;;5.00;2.25;;;;;;;;;;4977794;28;20055;-77
2023/03/11 08:23:38;;;;;;;4.45;2.20;;;;;;;;;;4978735;28;20051;-76
2023/03/11 08:26:05;;;;;;;5.60;2.85;;;;;;;;;;4962643;28;20051;-79
2023/03/11 08:28:31;;;;;;;4.78;2.30;;;;;;;;;;4978616;28;20045;-77
2023/03/11 08:30:57;;;;;;;4.28;2.00;;;;;;;;;;4979454;28;20098;-77
2023/03/11 08:33:23;;;;;;;4.60;2.33;;;;;;;;;;4982039;28;20043;-79
2023/03/11 08:35:49;;;;;;;6.20;2.35;;;;;;;;;;4979183;28;20121;-76
2023/03/11 08:38:15;;;;;;;5.43;2.50;;;;;;;;;;4978061;28;20478;-81
2023/03/11 08:40:41;;;;;;;4.32;2.70;;;;;;;;;;4978013;28;20122;-75
2023/03/11 08:43:08;;;;;;;3.47;2.47;;;;;;;;;;4977681;28;20050;-76
2023/03/11 08:45:34;;;;;;;5.43;2.33;;;;;;;;;;4978983;28;20494;-78
2023/03/11 08:48:00;;;;;;;5.57;2.10;;;;;;;;;;4960924;28;20097;-79
2023/03/11 08:50:26;;;;;;;7.40;2.03;;;;;;;;;;4979716;28;20050;-77
2023/03/11 08:52:53;;;;;;;3.53;1.80;;;;;;;;;;4976868;28;20406;-78
2023/03/11 08:55:26;;;;;;;7.15;2.50;;;;;;;;;;4976726;28;20057;-75
2023/03/11 08:57:52;;;;;;;7.55;2.17;;;;;;;;;;4976510;28;20043;-76
2023/03/11 09:00:18;;;;;;;3.85;2.00;;;;;;;;;;4977016;28;20118;-76
2023/03/11 09:02:44;;;;;;;3.42;2.00;;;;;;;;;;4977566;28;20426;-77
2023/03/11 09:05:11;;;;;;;5.72;2.33;;;;;;;;;;4977762;28;20055;-78
2023/03/11 09:07:37;;;;;;;3.78;2.20;;;;;;;;;;4976560;28;20035;-75
2023/03/11 09:10:03;;;;;;;5.47;2.50;;;;;;;;;;4973934;28;20094;-77
2023/03/11 09:12:29;;;;;;;4.30;1.90;;;;;;;;;;4974854;28;20053;-76
2023/03/11 09:14:55;;;;;;;4.00;2.00;;;;;;;;;;4965067;28;20043;-76
2023/03/11 09:17:21;;;;;;;3.20;1.77;;;;;;;;;;4975016;28;20043;-76
2023/03/11 09:19:48;;;;;;;5.25;2.65;;;;;;;;;;4976233;28;20147;-76
2023/03/11 09:22:14;;;;;;;4.45;2.42;;;;;;;;;;4976135;28;20051;-76
2023/03/11 09:24:40;;;;;;;4.95;2.00;;;;;;;;;;4980051;28;20047;-76
2023/03/11 09:27:06;;;;;;;5.65;2.00;;;;;;;;;;4964858;28;20496;-76
2023/03/11 09:29:32;;;;;;;6.07;2.40;;;;;;;;;;4975967;28;20570;-77
2023/03/11 09:31:58;;;;;;;4.75;2.33;;;;;;;;;;4973308;28;20035;-77
2023/03/11 09:34:24;;;;;;;8.60;2.30;;;;;;;;;;4970930;28;20073;-77
2023/03/11 09:36:50;;;;;;;3.83;1.92;;;;;;;;;;4975649;28;20122;-76
2023/03/11 09:39:16;;;;;;;4.82;2.30;;;;;;;;;;4975522;28;20038;-76
2023/03/11 09:41:49;;;;;;;7.57;2.13;;;;;;;;;;4975532;28;20129;-76
2023/03/11 09:44:20;;;;;;;7.38;2.15;;;;;;;;;;4975902;28;20484;-77
2023/03/11 09:47:00;;;;;;;4.47;2.22;;;;;;;;;;4972751;28;20045;-77
2023/03/11 09:49:26;;;;;;;5.05;1.85;;;;;;;;;;5016424;28;20049;-77
2023/03/11 09:51:57;;;;;;;4.35;2.20;;;;;;;;;;4995979;28;20105;-77
2023/03/11 09:54:23;;;;;;;2.17;1.80;;;;;;;;;;4997686;28;20050;-76
2023/03/11 09:56:50;;;;;;;4.35;2.17;;;;;;;;;;4995346;28;20485;-76
2023/03/11 09:59:19;;;;;;;4.93;2.33;;;;;;;;;;4995027;28;20049;-76
2023/03/11 10:01:47;;;;;;;5.05;1.92;;;;;;;;;;4992995;28;20092;-76
2023/03/11 10:04:33;;;;;;;5.10;2.20;;;;;;;;;;4995215;28;20043;-77
2023/03/11 10:07:01;;;;;;;2.50;1.73;;;;;;;;;;4980481;28;20077;-76
2023/03/11 10:09:38;;;;;;;3.47;2.10;;;;;;;;;;4990453;28;20050;-76
2023/03/11 10:12:04;;;;;;;5.75;2.45;;;;;;;;;;4995542;28;20042;-77
2023/03/11 10:14:49;;;;;;;4.03;2.20;;;;;;;;;;4993577;28;20046;-77
2023/03/11 10:17:36;;;;;;;7.47;2.20;;;;;;;;;;4994303;28;20493;-76
2023/03/11 10:20:03;;;;;;;4.40;1.90;;;;;;;;;;4975641;28;20051;-77
2023/03/11 10:22:45;;;;;;;2.70;1.77;;;;;;;;;;4989420;28;20530;-77
2023/03/11 10:25:16;;;;;;;4.80;1.83;;;;;;;;;;4996818;28;20038;-75
2023/03/11 10:27:50;;;;;;;4.30;1.98;;;;;;;;;;4996150;28;20077;-79
2023/03/11 10:30:16;;;;;;;4.55;1.90;;;;;;;;;;4999201;28;20081;-79
2023/03/11 10:32:42;;;;;;;4.57;1.90;;;;;;;;;;5001542;28;20061;-82
2023/03/11 10:35:26;;;;;;;5.90;2.05;;;;;;;;;;4995090;28;20050;-77
2023/03/11 10:38:16;;;;;;;5.53;2.40;;;;;;;;;;4983167;28;20074;-77
2023/03/11 10:40:43;;;;;;;3.80;1.88;;;;;;;;;;4972677;28;20453;-77
2023/03/11 10:43:13;;;;;;;3.72;2.03;;;;;;;;;;4957571;28;20062;-78
2023/03/11 10:45:43;;;;;;;8.48;2.30;;;;;;;;;;4959482;28;20059;-77
2023/03/11 10:48:13;;;;;;;4.97;2.40;;;;;;;;;;4968643;28;20047;-77
2023/03/11 10:50:48;;;;;;;4.55;1.85;;;;;;;;;;4988841;28;20051;-77
2023/03/11 10:53:15;;;;;;;3.17;2.00;;;;;;;;;;4972128;28;20057;-77
2023/03/11 10:55:46;;;;;;;5.18;2.20;;;;;;;;;;4960559;28;20043;-80
2023/03/11 10:58:15;;;;;;;7.13;1.90;;;;;;;;;;4975279;28;20645;-77
2023/03/11 11:00:41;;;;;;;6.30;1.80;;;;;;;;;;4978937;28;20043;-77
2023/03/11 11:03:16;;;;;;;3.10;2.05;;;;;;;;;;4978059;28;20054;-77
2023/03/11 11:05:42;;;;;;;4.80;2.60;;;;;;;;;;4973738;28;20094;-77
2023/03/11 11:08:08;;;;;;;5.82;2.42;;;;;;;;;;4988575;28;20105;-76
2023/03/11 11:10:36;;;;;;;3.28;1.80;;;;;;;;;;4969284;28;20054;-77
2023/03/11 11:13:16;;;;;;;5.00;2.00;;;;;;;;;;4972311;28;20124;-77
2023/03/11 11:16:02;;;;;;;3.40;1.90;;;;;;;;;;4972699;28;20050;-77
2023/03/11 11:18:30;;;;;;;3.20;1.70;;;;;;;;;;4978774;28;20085;-77
2023/03/11 11:20:56;;;;;;;4.15;1.80;;;;;;;;;;4992503;28;20046;-78
2023/03/11 11:23:27;;;;;;;3.92;2.05;;;;;;;;;;4997978;28;20042;-77
2023/03/11 11:25:56;;;;;;;5.28;2.05;;;;;;;;;;5011569;28;20482;-77
2023/03/11 11:28:22;;;;;;;5.10;2.50;;;;;;;;;;4993953;28;20038;-77
2023/03/11 11:31:02;;;;;;;2.15;1.55;;;;;;;;;;4994236;28;20092;-77
2023/03/11 11:33:33;;;;;;;3.05;1.70;;;;;;;;;;4993893;28;20118;-77
2023/03/11 11:36:09;;;;;;;4.50;1.70;;;;;;;;;;4997439;28;20054;-77
2023/03/11 11:38:38;;;;;;;2.22;1.30;;;;;;;;;;4996693;28;20050;-77
2023/03/11 11:41:05;;;;;;;3.65;1.20;;;;;;;;;;4986386;28;20100;-77
2023/03/11 11:43:50;;;;;;;2.70;1.23;;;;;;;;;;4997969;28;20042;-77
2023/03/11 11:46:25;;;;;;;2.47;1.20;;;;;;;;;;5000844;28;20043;-77
2023/03/11 11:48:59;;;;;;;8.32;1.63;;;;;;;;;;4999061;28;20097;-81
2023/03/11 11:51:34;;;;;;;3.90;1.30;;;;;;;;;;4997904;28;20402;-78
2023/03/11 11:54:23;;;;;;;4.50;1.60;;;;;;;;;;4997279;28;20054;-78
2023/03/11 11:56:49;;;;;;;3.00;1.40;;;;;;;;;;4996431;28;20293;-78
2023/03/11 11:59:17;;;;;;;3.42;1.40;;;;;;;;;;4997101;28;20042;-78
2023/03/11 12:01:58;;;;;;;2.72;1.08;;;;;;;;;;4997467;28;20049;-78
2023/03/11 12:04:43;;;;;;;5.00;1.33;;;;;;;;;;4996814;28;20485;-77
2023/03/11 12:07:35;;;;;;;2.28;1.08;;;;;;;;;;4994150;28;20404;-77
2023/03/11 12:10:01;;;;;;;3.17;1.33;;;;;;;;;;4995953;28;20077;-77
2023/03/11 12:12:27;;;;;;;1.83;1.10;;;;;;;;;;4996650;28;20050;-77
2023/03/11 12:15:14;;;;;;;4.30;1.33;;;;;;;;;;4996859;28;20042;-77
2023/03/11 12:17:42;;;;;;;2.22;1.30;;;;;;;;;;4996981;28;20050;-77
2023/03/11 12:20:08;;;;;;;4.03;1.42;;;;;;;;;;4996458;28;20065;-77
2023/03/11 12:22:53;;;;;;;5.38;1.77;;;;;;;;;;4985652;28;20060;-77
2023/03/11 12:25:23;;;;;;;5.38;1.50;;;;;;;;;;4977474;28;20043;-77
2023/03/11 12:27:54;;;;;;;4.03;1.27;;;;;;;;;;4987969;28;20046;-76
2023/03/11 12:30:23;;;;;;;3.88;1.70;;;;;;;;;;4996988;28;20229;-77
2023/03/11 12:32:53;;;;;;;2.47;1.10;;;;;;;;;;4996671;28;20053;-76
2023/03/11 12:35:30;;;;;;;3.50;1.30;;;;;;;;;;4997264;28;20043;-76
2023/03/11 12:38:04;;;;;;;4.15;1.15;;;;;;;;;;4995533;28;20046;-76
2023/03/11 12:40:57;;;;;;;2.15;1.10;;;;;;;;;;4990433;28;20062;-76
2023/03/11 12:43:32;;;;;;;0.85;0.82;;;;;;;;;;4995674;28;20426;-76
2023/03/11 12:45:59;;;;;;;1.45;1.02;;;;;;;;;;4978649;28;20046;-76
2023/03/11 12:48:40;;;;;;;2.47;1.08;;;;;;;;;;4979602;28;20098;-76
2023/03/11 12:51:06;;;;;;;3.17;1.30;;;;;;;;;;4996113;28;20074;-76
2023/03/11 12:53:46;;;;;;;2.22;1.00;;;;;;;;;;4995919;28;20129;-76
2023/03/11 12:56:25;;;;;;;3.88;1.40;;;;;;;;;;4996293;28;20397;-76
2023/03/11 12:59:03;;;;;;;4.03;1.30;;;;;;;;;;4983370;28;20042;-76
2023/03/11 13:01:50;;;;;;;2.20;1.30;;;;;;;;;;4995838;28;20050;-76
2023/03/11 13:04:28;;;;;;;3.38;1.10;;;;;;;;;;4990970;28;20065;-76
2023/03/11 13:07:08;;;;;;;3.65;1.23;;;;;;;;;;4994397;28;20465;-76
2023/03/11 13:09:34;;;;;;;3.25;1.25;;;;;;;;;;4996137;28;20053;-76
2023/03/11 13:12:00;;;;;;;1.92;1.20;;;;;;;;;;4991746;28;20485;-75
2023/03/11 13:14:27;;;;;;;2.67;1.20;;;;;;;;;;4995206;28;20111;-78
2023/03/11 13:16:53;;;;;;;1.77;1.02;;;;;;;;;;4996270;28;20154;-75
2023/03/11 13:19:25;;;;;;;1.23;1.02;;;;;;;;;;4994796;28;20513;-75
2023/03/11 13:21:58;;;;;;;2.17;1.20;;;;;;;;;;4996104;28;20050;-84
2023/03/11 13:24:30;;;;;;;2.25;1.00;;;;;;;;;;4997634;28;20042;-79
2023/03/11 13:26:59;;;;;;;3.92;1.38;;;;;;;;;;4997097;28;20473;-75
2023/03/11 13:29:37;;;;;;;2.42;1.20;;;;;;;;;;4995288;28;20038;-75
2023/03/11 13:32:23;;;;;;;3.35;1.40;;;;;;;;;;4995926;28;20112;-75
2023/03/11 13:34:59;;;;;;;2.65;1.25;;;;;;;;;;4991909;28;20065;-77
2023/03/11 13:37:25;;;;;;;6.03;1.20;;;;;;;;;;4996028;28;20432;-76
2023/03/11 13:40:12;;;;;;;3.35;1.42;;;;;;;;;;4993953;28;20129;-78
2023/03/11 13:42:53;;;;;;;3.47;1.30;;;;;;;;;;4994239;28;20046;-77
2023/03/11 13:45:26;;;;;;;1.95;1.30;;;;;;;;;;4994721;28;20528;-76
2023/03/11 13:47:54;;;;;;;2.60;1.38;;;;;;;;;;4994665;28;20389;-78
2023/03/11 13:50:24;;;;;;;3.17;1.45;;;;;;;;;;5025325;28;20056;-77
2023/03/11 13:52:54;;;;;;;4.53;1.50;;;;;;;;;;4994770;28;20402;-77
2023/03/11 13:55:21;;;;;;;3.10;1.52;;;;;;;;;;4993206;28;20511;-77
2023/03/11 13:57:52;;;;;;;3.47;1.30;;;;;;;;;;4994298;28;20061;-77
2023/03/11 14:00:22;;;;;;;2.40;1.38;;;;;;;;;;4994837;28;20038;-81
2023/03/11 14:02:50;;;;;;;4.93;1.65;;;;;;;;;;4996674;28;20105;-79
2023/03/11 14:05:23;;;;;;;3.22;1.60;;;;;;;;;;4995952;28;20042;-78
2023/03/11 14:07:50;;;;;;;3.55;1.20;;;;;;;;;;4993045;28;20132;-77
2023/03/11 14:10:22;;;;;;;3.30;1.13;;;;;;;;;;5002154;28;20540;-76
2023/03/11 14:12:48;;;;;;;3.50;1.35;;;;;;;;;;4979498;28;20134;-77
2023/03/11 14:15:17;;;;;;;3.13;1.40;;;;;;;;;;4989067;28;20059;-77
2023/03/11 14:17:43;;;;;;;1.70;0.90;;;;;;;;;;4985457;28;20114;-77
2023/03/11 14:20:17;;;;;;;2.97;1.20;;;;;;;;;;4991422;28;20057;-75
2023/03/11 14:22:45;;;;;;;1.95;1.02;;;;;;;;;;4976709;28;20121;-77
2023/03/11 14:25:25;;;;;;;2.25;1.20;;;;;;;;;;4994466;28;20120;-79
2023/03/11 14:27:55;;;;;;;1.75;1.20;;;;;;;;;;4994781;28;20042;-77
2023/03/11 14:30:23;;;;;;;2.05;1.30;;;;;;;;;;4994983;28;20038;-77
2023/03/11 14:32:56;;;;;;;2.38;1.60;;;;;;;;;;4992968;28;20042;-77
2023/03/11 14:35:22;;;;;;;2.17;1.45;;;;;;;;;;4992925;28;20042;-76
2023/03/11 14:37:48;;;;;;;2.40;1.42;;;;;;;;;;4993385;28;20461;-76
2023/03/11 14:40:26;;;;;;;2.75;1.70;;;;;;;;;;4994429;28;20081;-77
2023/03/11 14:42:54;;;;;;;1.88;1.50;;;;;;;;;;4993349;28;20057;-77
2023/03/11 14:45:22;;;;;;;6.30;2.13;;;;;;;;;;4994702;28;20058;-76
2023/03/11 14:47:55;;;;;;;4.55;2.22;;;;;;;;;;4994060;28;20053;-76
2023/03/11 14:50:23;;;;;;;2.67;1.65;;;;;;;;;;4993433;28;20491;-76
2023/03/11 14:53:00;;;;;;;3.13;1.80;;;;;;;;;;4993156;28;20058;-76